Charles Town, WV

3:45 PM EDT on September 03, 2015 (GMT -0400)
Vinton Farm | | Change Station
CLOSE
Current Station
Personal Weather Station
Location: Charles Town, WV
Elevation: 522 ft
Nearby Weather Stations

Elev 522 ft 39.27 °N, 77.86 °W | Updated 1 minute ago

Partly Cloudy
Partly Cloudy
92.7 °F
Feels Like 96 °F
N
0.2
Wind Variable Wind from ENE
Gusts 2.5 mph

Today
High -- | Low -- °F
--% Chance of Precip.
Yesterday
High -- | Low -- °F
Precip. -- in
6:41 AM 7:39 PM
Waning Gibbous, 67% visible
Pressure 29.89 in
Visibility 8.0 miles
Clouds Few 6000 ft
Heat Index 96 °F
Dew Point 66 °F
Humidity 42%
Rainfall 0.00 in
Snow Depth Not available.
UV 3.0 out of 12
Pollen 9.80 out of 12
Air Quality Not available.
Flu Activity Not available.
METAR KMRB 031853Z 35005KT 8SM FEW060 34/17 A2991 RMK AO2 SLP120 T03390172
Pressure 29.89 in
Visibility 8.0 miles
Clouds Few 6000 ft
Heat Index 96 °F
Dew Point 66 °F
Humidity 42%
Rainfall 0.00 in
Snow Depth Not available.
UV 3.0 out of 12
Pollen 9.80 out of 12
Air Quality Not available.
Flu Activity Not available.
METAR KMRB 031853Z 35005KT 8SM FEW060 34/17 A2991 RMK AO2 SLP120 T03390172

10-Day Weather Forecast

×

Almanac

Astronomy

Sep. 03, 2015 Rise Set
Actual Time
Civil Twilight
Nautical Twilight
Astronomical Twilight
Moon
Length of Visible Light
Length of Day
Tomorrow will be .
, % of the Moon is Illuminated

Today's Extremes

State Highs State Lows

Community

WunderPhotos

Upload Photos

1,852,017 photos uploaded!

WunderBlogs® & News

Nearby

Air Quality

  Air Quality AQ Index Pollutant
Not available.

Snow Depth

Station Depth Elevation

Earthquake Activity

City Distance Mag. Time & Date
Minimum magnitude displayed is 2.5.

Coastal Water Temperatures

Place Temperature

Stations

Nearby Weather Stations

Station Location Temp. Windchill Dew Point Humidity Wind Precip. Elev Updated Type